Time;durP1;ratioP1;P1;durP2;ratioP2;P2;SDS_P1;SDS_P2;PMS_P1;PMS_P2;Temp;Humidity;BMP_temperature;BMP_pressure;BME280_temperature;BME280_humidity;BME280_pressure;Samples;Min_cycle;Max_cycle;Signal;HPM_P1;HPM_P2
2022/05/06 00:01:52;;;;;;;;;;;;;;;17.99;54.68;100291.22;4411431;32;19990;-81
2022/05/06 00:04:21;;;;;;;;;;;;;;;17.96;54.82;100286.88;4400627;32;19986;-82
2022/05/06 00:06:48;;;;;;;;;;;;;;;17.94;54.83;100296.50;4400531;32;19982;-80
2022/05/06 00:09:15;;;;;;;;;;;;;;;18.02;54.49;100289.44;4400192;32;20000;-81
2022/05/06 00:11:42;;;;;;;;;;;;;;;17.85;55.21;100288.72;4400754;32;19982;-81
2022/05/06 00:14:10;;;;;;;;;;;;;;;17.89;54.94;100282.56;4409039;32;19992;-82
2022/05/06 00:16:38;;;;;;;;;;;;;;;17.95;54.71;100276.41;4356336;32;19994;-81
2022/05/06 00:19:05;;;;;;;;;;;;;;;17.89;54.85;100282.56;4374675;32;20428;-81
2022/05/06 00:21:32;;;;;;;;;;;;;;;17.89;54.85;100279.94;4370214;32;20028;-81
2022/05/06 00:23:59;;;;;;;;;;;;;;;17.74;55.49;100283.53;4370009;32;20038;-81
2022/05/06 00:26:31;;;;;;;;;;;;;;;17.61;55.97;100281.81;4370497;32;19987;-82
2022/05/06 00:28:58;;;;;;;;;;;;;;;17.57;55.94;100287.97;4374392;32;19991;-81
2022/05/06 00:31:26;;;;;;;;;;;;;;;17.70;55.55;100291.37;4370155;32;19994;-81
2022/05/06 00:33:53;;;;;;;;;;;;;;;17.93;55.08;100284.28;4373039;32;19989;-81
2022/05/06 00:36:21;;;;;;;;;;;;;;;17.89;55.67;100287.81;4369276;32;20017;-82
2022/05/06 00:38:47;;;;;;;;;;;;;;;17.62;56.68;100284.44;4375698;32;20321;-82
2022/05/06 00:41:14;;;;;;;;;;;;;;;17.73;56.40;100286.12;4370571;32;19986;-81
2022/05/06 00:43:42;;;;;;;;;;;;;;;17.95;55.41;100285.16;4374188;32;20023;-81
2022/05/06 00:46:14;;;;;;;;;;;;;;;17.71;56.29;100287.87;4354910;32;21359;-81
2022/05/06 00:48:43;;;;;;;;;;;;;;;17.86;56.11;100287.81;4389106;32;20026;-81
2022/05/06 00:51:12;;;;;;;;;;;;;;;17.80;56.08;100283.47;4398585;32;20287;-81
2022/05/06 00:53:39;;;;;;;;;;;;;;;17.97;55.72;100291.25;4398305;32;20316;-81
2022/05/06 00:56:10;;;;;;;;;;;;;;;18.04;55.65;100285.09;4400175;32;19994;-81
2022/05/06 00:58:37;;;;;;;;;;;;;;;18.02;55.80;100284.22;4398376;32;19989;-81
2022/05/06 01:01:04;;;;;;;;;;;;;;;18.01;55.61;100292.09;4388134;32;19987;-82
2022/05/06 01:03:32;;;;;;;;;;;;;;;18.09;55.46;100299.03;4385021;32;19978;-81
2022/05/06 01:05:59;;;;;;;;;;;;;;;18.06;55.65;100288.56;4382810;32;20004;-82
2022/05/06 01:08:29;;;;;;;;;;;;;;;17.89;55.85;100287.81;4395359;32;19970;-81
2022/05/06 01:10:57;;;;;;;;;;;;;;;17.29;57.98;100300.31;4398718;32;20004;-81
2022/05/06 01:13:25;;;;;;;;;;;;;;;17.86;56.11;100307.03;4398917;32;20478;-81
2022/05/06 01:15:55;;;;;;;;;;;;;;;18.00;55.81;100306.94;4398896;32;19982;-81
2022/05/06 01:18:23;;;;;;;;;;;;;;;17.94;55.88;100301.75;4398826;32;20331;-82
2022/05/06 01:20:51;;;;;;;;;;;;;;;18.00;56.16;100301.72;4400105;32;19986;-81
2022/05/06 01:23:20;;;;;;;;;;;;;;;18.28;55.02;100298.88;4399703;32;19992;-81
2022/05/06 01:25:47;;;;;;;;;;;;;;;18.07;55.99;100286.81;4399657;32;19998;-81
2022/05/06 01:28:14;;;;;;;;;;;;;;;18.15;55.79;100289.38;4399685;32;20000;-80
2022/05/06 01:30:45;;;;;;;;;;;;;;;18.22;55.58;100296.28;4399981;32;20035;-80
2022/05/06 01:33:17;;;;;;;;;;;;;;;18.30;55.29;100289.25;4398776;32;20788;-80
2022/05/06 01:35:53;;;;;;;;;;;;;;;18.17;55.68;100296.34;4389153;32;21295;-81
2022/05/06 01:38:30;;;;;;;;;;;;;;;18.12;55.73;100291.16;4398747;32;19982;-82
2022/05/06 01:40:59;;;;;;;;;;;;;;;18.22;55.40;100296.28;4399761;32;19978;-81
2022/05/06 01:43:27;;;;;;;;;;;;;;;18.16;55.62;100285.88;4399945;32;19986;-82
2022/05/06 01:45:54;;;;;;;;;;;;;;;18.26;55.32;100290.16;4398212;32;20032;-81
2022/05/06 01:48:21;;;;;;;;;;;;;;;18.28;55.22;100285.75;4399972;32;19994;-82
2022/05/06 01:50:49;;;;;;;;;;;;;;;18.08;55.74;100278.94;4400284;32;20445;-81
2022/05/06 01:53:19;;;;;;;;;;;;;;;17.98;56.05;100286.88;4399888;32;19986;-81
2022/05/06 01:55:47;;;;;;;;;;;;;;;17.89;56.07;100285.19;4398876;32;19998;-82
2022/05/06 01:58:14;;;;;;;;;;;;;;;17.99;55.68;100294.72;4388494;32;19986;-81
2022/05/06 02:00:42;;;;;;;;;;;;;;;17.97;55.56;100283.41;4384947;32;19982;-82
2022/05/06 02:05:16;;;;;;;;;;;;;;;17.92;55.92;100282.53;4395736;32;20529;-81
2022/05/06 02:05:57;;;;;;;;;;;;;;;17.96;55.66;100289.50;4384156;32;20017;-82
2022/05/06 02:08:26;;;;;;;;;;;;;;;18.01;55.39;100282.47;4381608;32;19991;-81
2022/05/06 02:10:53;;;;;;;;;;;;;;;18.07;55.19;100266.72;4399270;32;19982;-81
2022/05/06 02:13:20;;;;;;;;;;;;;;;17.97;55.46;100272.91;4389666;32;20032;-81
2022/05/06 02:15:48;;;;;;;;;;;;;;;17.85;55.71;100280.84;4383492;32;20007;-83
2022/05/06 02:18:15;;;;;;;;;;;;;;;17.90;55.51;100281.72;4387680;32;20002;-81
2022/05/06 02:20:43;;;;;;;;;;;;;;;17.78;55.82;100277.41;4381201;32;19987;-82
2022/05/06 02:23:12;;;;;;;;;;;;;;;17.88;55.70;100283.47;4390134;32;19989;-81
2022/05/06 02:25:39;;;;;;;;;;;;;;;17.99;55.37;100281.63;4384556;32;19986;-81
2022/05/06 02:28:07;;;;;;;;;;;;;;;17.99;55.40;100291.22;4384428;32;19990;-81
2022/05/06 02:33:23;;;;;;;;;;;;;;;17.97;55.33;100275.53;4387453;32;20474;-81
2022/05/06 02:35:52;;;;;;;;;;;;;;;18.09;55.06;100275.44;4383867;32;19987;-81
2022/05/06 02:38:20;;;;;;;;;;;;;;;18.00;55.32;100280.75;4384624;32;19982;-81
2022/05/06 02:40:49;;;;;;;;;;;;;;;18.11;54.91;100276.28;4379206;32;20054;-82
2022/05/06 02:43:17;;;;;;;;;;;;;;;17.98;55.01;100282.50;4390803;32;19978;-81
2022/05/06 02:45:45;;;;;;;;;;;;;;;17.99;54.32;100284.22;4383879;32;19983;-82
2022/05/06 02:48:12;;;;;;;;;;;;;;;17.99;53.57;100286.84;4382514;32;20034;-81
2022/05/06 02:50:39;;;;;;;;;;;;;;;18.04;53.01;100292.94;4383020;32;20014;-81
2022/05/06 02:53:06;;;;;;;;;;;;;;;18.07;52.93;100287.69;4383972;32;20121;-81
2022/05/06 02:55:33;;;;;;;;;;;;;;;18.26;52.17;100283.16;4383978;32;19998;-81
2022/05/06 02:58:00;;;;;;;;;;;;;;;17.96;52.59;100279.00;4379382;32;20403;-81
2022/05/06 03:00:28;;;;;;;;;;;;;;;18.35;51.61;100282.22;4392695;32;20057;-81
2022/05/06 03:02:56;;;;;;;;;;;;;;;18.35;51.80;100277.84;4386405;32;19983;-80
2022/05/06 03:05:25;;;;;;;;;;;;;;;18.37;51.84;100285.69;4386842;32;19991;-82
2022/05/06 03:07:53;;;;;;;;;;;;;;;18.47;51.87;100271.59;4385960;32;19999;-81
2022/05/06 03:10:21;;;;;;;;;;;;;;;18.44;52.48;100271.66;4384451;32;20431;-82
2022/05/06 03:12:48;;;;;;;;;;;;;;;18.51;51.48;100268.09;4389156;32;19974;-80
2022/05/06 03:15:15;;;;;;;;;;;;;;;18.55;51.37;100269.78;4381337;32;20489;-81
2022/05/06 03:17:43;;;;;;;;;;;;;;;18.46;51.18;100279.50;4391698;32;19982;-81
2022/05/06 03:20:11;;;;;;;;;;;;;;;18.55;51.11;100272.41;4383625;32;20013;-82
2022/05/06 03:22:39;;;;;;;;;;;;;;;18.53;52.18;100283.81;4389833;32;19994;-82
2022/05/06 03:25:07;;;;;;;;;;;;;;;18.62;52.32;100280.22;4397220;32;20006;-82
2022/05/06 03:30:23;;;;;;;;;;;;;;;18.67;51.41;100283.69;4384331;32;20048;-82
2022/05/06 03:32:50;;;;;;;;;;;;;;;18.55;52.25;100277.66;4389477;32;20343;-82
2022/05/06 03:35:17;;;;;;;;;;;;;;;18.63;52.48;100287.19;4414140;32;20081;-82
2022/05/06 03:37:45;;;;;;;;;;;;;;;18.71;52.31;100291.50;4414472;32;20016;-82
2022/05/06 03:40:12;;;;;;;;;;;;;;;18.69;52.34;100295.00;4416127;32;20006;-83
2022/05/06 03:42:39;;;;;;;;;;;;;;;18.44;52.71;100291.75;4415973;32;20012;-82
2022/05/06 03:45:09;;;;;;;;;;;;;;;18.56;52.56;100289.88;4416097;32;19997;-82
2022/05/06 03:47:36;;;;;;;;;;;;;;;18.41;53.08;100281.28;4416108;32;19998;-82
2022/05/06 03:52:51;;;;;;;;;;;;;;;18.53;53.07;100292.53;4409760;32;20052;-81
2022/05/06 03:55:19;;;;;;;;;;;;;;;18.50;53.09;100287.31;4397139;32;20008;-82
2022/05/06 03:57:46;;;;;;;;;;;;;;;18.47;53.09;100287.34;4398529;32;19982;-81
2022/05/06 04:00:14;;;;;;;;;;;;;;;18.38;53.40;100297.94;4403925;32;19982;-82
2022/05/06 04:02:41;;;;;;;;;;;;;;;18.30;53.67;100291.87;4400594;32;20052;-82
2022/05/06 04:05:10;;;;;;;;;;;;;;;18.35;53.92;100298.81;4398748;32;19986;-82
2022/05/06 04:07:38;;;;;;;;;;;;;;;18.44;53.85;100303.12;4400921;32;20314;-81
2022/05/06 04:10:05;;;;;;;;;;;;;;;18.42;53.88;100299.62;4400345;32;19985;-82
2022/05/06 04:12:33;;;;;;;;;;;;;;;18.32;54.45;100292.75;4400252;32;19985;-82
2022/05/06 04:15:01;;;;;;;;;;;;;;;18.40;52.68;100292.66;4399804;32;19982;-82
2022/05/06 04:17:28;;;;;;;;;;;;;;;18.59;51.15;100297.72;4400368;32;19986;-82
2022/05/06 04:25:28;;;;;;;;;;;;;;;18.62;51.24;100322.19;4400446;32;20008;-83
2022/05/06 04:27:56;;;;;;;;;;;;;;;18.73;50.87;100320.34;4400735;32;19982;-81
2022/05/06 04:30:24;;;;;;;;;;;;;;;18.51;51.42;100319.66;4404305;32;20759;-81
2022/05/06 04:32:52;;;;;;;;;;;;;;;18.55;51.51;100327.47;4400279;32;19978;-82
2022/05/06 04:35:19;;;;;;;;;;;;;;;18.56;51.72;100331.84;4400111;32;20038;-82
2022/05/06 04:37:46;;;;;;;;;;;;;;;18.62;51.55;100322.19;4400635;32;21371;-81
2022/05/06 04:40:13;;;;;;;;;;;;;;;18.87;50.69;100334.22;4398047;32;20085;-82
2022/05/06 04:42:40;;;;;;;;;;;;;;;18.77;51.44;100329.94;4400045;32;20316;-82
2022/05/06 04:45:07;;;;;;;;;;;;;;;18.99;50.78;100327.97;4398698;32;19978;-82
2022/05/06 04:47:37;;;;;;;;;;;;;;;18.82;51.41;100336.00;4400577;32;20012;-82
2022/05/06 04:50:04;;;;;;;;;;;;;;;18.93;50.76;100328.91;4400027;32;20039;-81
2022/05/06 04:52:32;;;;;;;;;;;;;;;18.83;51.09;100337.75;4400792;32;20030;-82
2022/05/06 04:54:59;;;;;;;;;;;;;;;18.88;51.64;100345.56;4399764;32;20101;-81
2022/05/06 04:57:26;;;;;;;;;;;;;;;19.12;50.86;100339.22;4399390;32;20005;-82
2022/05/06 04:59:53;;;;;;;;;;;;;;;19.14;50.78;100350.53;4397475;32;20040;-81
2022/05/06 05:02:21;;;;;;;;;;;;;;;19.20;50.41;100347.84;4397377;32;19998;-81
2022/05/06 05:04:52;;;;;;;;;;;;;;;19.09;50.92;100349.75;4401659;32;19983;-82
2022/05/06 05:07:19;;;;;;;;;;;;;;;19.20;50.79;100350.47;4398331;32;19990;-82
2022/05/06 05:09:47;;;;;;;;;;;;;;;19.22;50.20;100348.72;4400157;32;19978;-82
2022/05/06 05:12:15;;;;;;;;;;;;;;;19.18;50.73;100350.50;4399673;32;19990;-81
2022/05/06 05:14:42;;;;;;;;;;;;;;;19.14;50.70;100347.91;4399598;32;20028;-82
2022/05/06 05:17:11;;;;;;;;;;;;;;;19.03;51.21;100335.78;4399793;32;20024;-82
2022/05/06 05:19:40;;;;;;;;;;;;;;;19.26;50.21;100342.53;4399700;32;20005;-83
2022/05/06 05:22:09;;;;;;;;;;;;;;;19.04;50.49;100348.00;4399301;32;20032;-83
2022/05/06 05:24:36;;;;;;;;;;;;;;;19.34;50.19;100345.97;4400157;32;19987;-82
2022/05/06 05:27:03;;;;;;;;;;;;;;;19.18;50.60;100347.88;4399904;32;20003;-79
2022/05/06 05:29:30;;;;;;;;;;;;;;;19.16;50.86;100351.41;4399670;32;20005;-79
2022/05/06 05:31:59;;;;;;;;;;;;;;;19.39;50.19;100352.00;4399682;32;19986;-80
2022/05/06 05:34:26;;;;;;;;;;;;;;;19.49;49.75;100345.75;4398930;32;20032;-82
2022/05/06 05:36:53;;;;;;;;;;;;;;;19.57;49.57;100352.69;4398119;32;19990;-79
2022/05/06 05:39:20;;;;;;;;;;;;;;;19.43;49.94;100345.84;4399657;32;19986;-82
2022/05/06 05:41:49;;;;;;;;;;;;;;;19.56;49.65;100345.69;4399942;32;19978;-82
2022/05/06 05:49:49;;;;;;;;;;;;;;;19.68;50.01;100350.81;4411889;32;20449;-80
2022/05/06 05:52:15;;;;;;;;;;;;;;;19.58;49.86;100359.66;4400915;32;20001;-82
2022/05/06 05:54:43;;;;;;;;;;;;;;;19.77;49.01;100363.81;4399946;32;20327;-80
2022/05/06 05:57:10;;;;;;;;;;;;;;;19.37;49.90;100368.66;4395492;32;20317;-79
2022/05/06 05:59:38;;;;;;;;;;;;;;;19.41;50.22;100363.38;4399815;32;19978;-79
2022/05/06 06:02:06;;;;;;;;;;;;;;;19.65;49.01;100366.59;4405086;32;19996;-81
2022/05/06 06:04:33;;;;;;;;;;;;;;;19.71;49.62;100369.16;4399823;32;19986;-82
2022/05/06 06:07:00;;;;;;;;;;;;;;;19.70;49.49;100370.06;4400812;32;20307;-80
2022/05/06 06:09:28;;;;;;;;;;;;;;;19.52;49.99;100371.09;4400445;32;20366;-81
2022/05/06 06:11:56;;;;;;;;;;;;;;;19.91;48.87;100374.12;4395757;32;19966;-82
2022/05/06 06:14:23;;;;;;;;;;;;;;;19.63;49.20;100378.88;4403799;32;19994;-81
2022/05/06 06:16:51;;;;;;;;;;;;;;;19.95;48.53;100370.59;4404719;32;19981;-81
2022/05/06 06:19:19;;;;;;;;;;;;;;;19.93;48.72;100373.22;4399269;32;20375;-79
2022/05/06 06:21:46;;;;;;;;;;;;;;;19.84;49.22;100375.97;4397149;32;20801;-79
2022/05/06 06:24:13;;;;;;;;;;;;;;;19.84;48.95;100378.59;4404686;32;20326;-80
2022/05/06 06:26:40;;;;;;;;;;;;;;;19.95;48.64;100376.72;4397734;32;20309;-83
2022/05/06 06:29:08;;;;;;;;;;;;;;;19.80;48.96;100382.19;4399000;32;20330;-88
2022/05/06 06:31:34;;;;;;;;;;;;;;;19.67;49.31;100377.97;4399020;32;19979;-86
2022/05/06 06:34:02;;;;;;;;;;;;;;;20.01;48.59;100385.44;4391189;32;19994;-82
2022/05/06 06:36:30;;;;;;;;;;;;;;;20.09;48.43;100384.41;4385826;32;20036;-86
2022/05/06 06:38:57;;;;;;;;;;;;;;;20.13;48.32;100380.88;4386219;32;19997;-85
2022/05/06 06:41:26;;;;;;;;;;;;;;;20.22;48.35;100385.09;4395586;32;19998;-90
2022/05/06 06:43:53;;;;;;;;;;;;;;;20.11;49.01;100387.03;4400639;32;19986;-86
2022/05/06 06:46:20;;;;;;;;;;;;;;;20.09;48.35;100378.28;4400517;32;20295;-82
2022/05/06 06:48:47;;;;;;;;;;;;;;;20.26;48.02;100375.41;4400226;32;20097;-84
2022/05/06 06:51:15;;;;;;;;;;;;;;;20.18;48.17;100384.28;4398362;32;19974;-81
2022/05/06 06:53:42;;;;;;;;;;;;;;;20.35;47.94;100376.13;4400231;32;20321;-84
2022/05/06 06:56:09;;;;;;;;;;;;;;;20.56;47.88;100382.00;4400918;32;20004;-81
2022/05/06 06:58:36;;;;;;;;;;;;;;;20.56;48.15;100376.72;4400736;32;19986;-81
2022/05/06 07:01:03;;;;;;;;;;;;;;;20.66;47.93;100380.94;4400364;32;20017;-80
2022/05/06 07:03:31;;;;;;;;;;;;;;;20.88;47.25;100371.78;4399313;32;19978;-83
2022/05/06 07:14:15;;;;;;;;;;;;;;;21.11;46.96;100370.50;4397080;32;20370;-81
2022/05/06 07:16:43;;;;;;;;;;;;;;;21.25;46.57;100371.12;4396686;32;20950;-83
2022/05/06 07:19:10;;;;;;;;;;;;;;;21.01;46.80;100382.09;4398586;32;20069;-82
2022/05/06 07:21:37;;;;;;;;;;;;;;;21.02;47.25;100383.81;4397464;32;20029;-86
2022/05/06 07:24:04;;;;;;;;;;;;;;;21.18;47.27;100377.38;4399454;32;20817;-83
2022/05/06 07:26:31;;;;;;;;;;;;;;;21.39;45.78;100380.53;4401083;32;20013;-81
2022/05/06 07:28:58;;;;;;;;;;;;;;;21.39;45.55;100383.19;4400893;32;20000;-84
2022/05/06 07:31:25;;;;;;;;;;;;;;;21.12;46.19;100385.38;4400857;32;19987;-83
2022/05/06 07:33:52;;;;;;;;;;;;;;;21.33;45.81;100374.44;4399861;32;20056;-84
2022/05/06 07:36:19;;;;;;;;;;;;;;;21.22;46.23;100379.06;4400521;32;20349;-81
2022/05/06 07:38:46;;;;;;;;;;;;;;;21.31;46.28;100378.91;4398574;32;19992;-81
2022/05/06 07:41:15;;;;;;;;;;;;;;;21.48;45.68;100383.00;4400494;32;20002;-84
2022/05/06 07:43:42;;;;;;;;;;;;;;;21.62;45.32;100386.22;4399569;32;19986;-83
2022/05/06 07:46:09;;;;;;;;;;;;;;;21.45;45.49;100388.34;4399774;32;20391;-83
2022/05/06 07:48:37;;;;;;;;;;;;;;;21.72;44.98;100387.75;4400499;32;20379;-83
2022/05/06 07:51:05;;;;;;;;;;;;;;;21.90;44.09;100386.50;4400545;32;19978;-83
2022/05/06 07:53:32;;;;;;;;;;;;;;;22.13;44.52;100390.41;4400551;32;20804;-83
2022/05/06 07:56:00;;;;;;;;;;;;;;;21.96;43.60;100390.78;4400489;32;20729;-82
2022/05/06 07:58:27;;;;;;;;;;;;;;;21.82;43.87;100389.31;4400895;32;19978;-83
2022/05/06 08:00:53;;;;;;;;;;;;;;;21.62;44.82;100388.84;4398390;32;20042;-83
2022/05/06 08:06:07;;;;;;;;;;;;;;;21.67;44.99;100389.63;4399056;32;19986;-80
2022/05/06 08:08:35;;;;;;;;;;;;;;;21.81;44.54;100392.81;4395844;32;20005;-81
2022/05/06 08:11:02;;;;;;;;;;;;;;;21.80;45.31;100391.09;4400667;32;20064;-80
2022/05/06 08:13:29;;;;;;;;;;;;;;;21.81;45.37;100392.81;4399138;32;20008;-83
2022/05/06 08:15:57;;;;;;;;;;;;;;;22.24;44.33;100386.66;4086464;32;10004120;-83
2022/05/06 08:18:24;;;;;;;;;;;;;;;22.36;44.20;100379.34;4385475;32;20422;-83
2022/05/06 08:20:52;;;;;;;;;;;;;;;22.54;43.37;100384.19;4384072;32;20042;-82
2022/05/06 08:23:21;;;;;;;;;;;;;;;22.65;43.45;100376.84;4383299;32;20004;-80
2022/05/06 08:25:49;;;;;;;;;;;;;;;22.57;43.48;100384.09;4385890;32;19982;-81
2022/05/06 08:28:17;;;;;;;;;;;;;;;22.77;44.00;100378.31;4398817;32;20004;-80
2022/05/06 08:30:47;;;;;;;;;;;;;;;22.82;43.86;100380.88;4400162;32;19985;-82
2022/05/06 08:33:14;;;;;;;;;;;;;;;22.92;42.18;100380.56;4386691;32;19986;-83
2022/05/06 08:35:42;;;;;;;;;;;;;;;22.71;43.51;100384.62;4400855;32;20004;-84
2022/05/06 08:38:11;;;;;;;;;;;;;;;22.62;43.96;100381.34;4400215;32;19994;-84
2022/05/06 08:40:37;;;;;;;;;;;;;;;22.89;43.49;100382.44;4399328;32;20009;-84
2022/05/06 08:43:04;;;;;;;;;;;;;;;22.73;43.91;100376.69;4400560;32;20012;-83
2022/05/06 08:51:04;;;;;;;;;;;;;;;23.12;42.52;100388.00;4401199;32;19985;-84
2022/05/06 08:53:32;;;;;;;;;;;;;;;22.98;42.09;100388.38;4399308;32;19978;-84
2022/05/06 08:55:59;;;;;;;;;;;;;;;22.89;42.93;100385.94;4398945;32;19997;-83
2022/05/06 08:58:33;;;;;;;;;;;;;;;23.10;42.73;100389.81;4400740;32;20005;-84
2022/05/06 09:01:10;;;;;;;;;;;;;;;23.72;42.23;100391.66;4399872;32;19986;-82
2022/05/06 09:03:47;;;;;;;;;;;;;;;23.81;41.38;100387.88;4399009;32;19990;-81
2022/05/06 09:06:18;;;;;;;;;;;;;;;23.89;41.55;100391.12;4400608;32;19986;-83
2022/05/06 09:08:45;;;;;;;;;;;;;;;24.06;41.24;100378.28;4399953;32;20055;-84
2022/05/06 09:11:12;;;;;;;;;;;;;;;24.20;41.28;100384.91;4397462;32;19982;-83
2022/05/06 09:13:50;;;;;;;;;;;;;;;24.16;40.26;100385.94;4400663;32;20000;-81
2022/05/06 09:19:21;;;;;;;;;;;;;;;24.30;40.87;100383.72;4385567;32;20375;-84
2022/05/06 09:22:01;;;;;;;;;;;;;;;24.70;40.10;100379.81;4386277;32;19970;-85
2022/05/06 09:24:28;;;;;;;;;;;;;;;24.58;39.77;100376.63;4399783;32;19970;-82
2022/05/06 09:26:55;;;;;;;;;;;;;;;24.52;40.47;100389.22;4400198;32;20057;-83
2022/05/06 09:29:41;;;;;;;;;;;;;;;24.52;39.49;100392.72;4400534;32;20330;-85
2022/05/06 09:32:12;;;;;;;;;;;;;;;24.66;39.73;100388.75;4399996;32;20008;-86
2022/05/06 09:34:40;;;;;;;;;;;;;;;24.48;39.50;100385.81;4400704;32;20001;-82
2022/05/06 09:37:07;;;;;;;;;;;;;;;24.70;38.62;100385.09;4398866;32;20017;-81
2022/05/06 09:39:36;;;;;;;;;;;;;;;24.74;38.80;100378.78;4399651;32;20024;-82
2022/05/06 09:42:04;;;;;;;;;;;;;;;24.80;39.72;100375.94;4400448;32;20044;-82
2022/05/06 09:44:32;;;;;;;;;;;;;;;25.01;39.01;100380.47;4400397;32;19994;-83
2022/05/06 09:47:08;;;;;;;;;;;;;;;24.84;39.20;100382.84;4399521;32;19978;-84
2022/05/06 09:49:37;;;;;;;;;;;;;;;25.05;38.09;100381.25;4400353;32;20013;-83
2022/05/06 09:52:13;;;;;;;;;;;;;;;24.76;39.44;100382.22;4399736;32;20072;-84
2022/05/06 09:54:42;;;;;;;;;;;;;;;25.00;38.35;100381.38;4400417;32;19986;-82
2022/05/06 09:57:12;;;;;;;;;;;;;;;25.24;38.19;100376.19;4399416;32;20021;-83
2022/05/06 09:59:40;;;;;;;;;;;;;;;25.21;38.29;100376.31;4399473;32;20552;-84
2022/05/06 10:02:07;;;;;;;;;;;;;;;25.55;38.19;100375.06;4399868;32;19986;-83
2022/05/06 10:04:35;;;;;;;;;;;;;;;25.44;36.67;100368.38;4400150;32;19986;-82
2022/05/06 10:07:04;;;;;;;;;;;;;;;25.26;37.67;100379.63;4398337;32;20042;-84
2022/05/06 10:09:36;;;;;;;;;;;;;;;25.60;37.39;100368.66;4400165;32;20000;-85
2022/05/06 10:12:04;;;;;;;;;;;;;;;25.42;37.85;100367.56;4400181;32;20729;-82
2022/05/06 10:14:31;;;;;;;;;;;;;;;25.91;36.53;100368.41;4397350;32;20006;-84
2022/05/06 10:16:58;;;;;;;;;;;;;;;26.18;35.49;100371.75;4398711;32;20411;-83
2022/05/06 10:19:37;;;;;;;;;;;;;;;26.41;35.14;100362.84;4398925;32;20004;-82
2022/05/06 10:22:04;;;;;;;;;;;;;;;26.32;35.38;100360.56;4399199;32;20037;-82
2022/05/06 10:24:38;;;;;;;;;;;;;;;26.10;34.63;100357.03;4399838;32;19974;-85
2022/05/06 10:32:25;;;;;;;;;;;;;;;25.64;32.70;100358.81;4397464;32;20295;-84
2022/05/06 10:33:18;;;;;;;;;;;;;;;25.81;34.51;100353.75;4398612;32;20029;-81
2022/05/06 10:35:46;;;;;;;;;;;;;;;26.11;33.86;100356.13;4401004;32;19978;-84
2022/05/06 10:38:19;;;;;;;;;;;;;;;26.29;32.88;100363.38;4095009;32;10000789;-84
2022/05/06 10:40:54;;;;;;;;;;;;;;;25.70;32.96;100353.28;4400008;32;20359;-81
2022/05/06 10:43:39;;;;;;;;;;;;;;;25.42;32.74;100349.00;4397798;32;20524;-84
2022/05/06 10:46:11;;;;;;;;;;;;;;;25.47;33.77;100347.06;4397797;32;20128;-82
2022/05/06 10:48:38;;;;;;;;;;;;;;;25.84;34.02;100348.31;4398381;32;20077;-83
2022/05/06 10:51:24;;;;;;;;;;;;;;;25.61;33.02;100348.31;4399096;32;20013;-82
2022/05/06 10:53:52;;;;;;;;;;;;;;;25.48;33.10;100342.63;4399716;32;20010;-84
2022/05/06 10:56:20;;;;;;;;;;;;;;;25.83;33.29;100333.34;4399164;32;19990;-84
2022/05/06 10:58:55;;;;;;;;;;;;;;;25.72;34.12;100354.09;4399006;32;19986;-84
2022/05/06 11:01:24;;;;;;;;;;;;;;;25.35;34.80;100347.50;4399074;32;20047;-85
2022/05/06 11:03:50;;;;;;;;;;;;;;;25.56;33.82;100339.66;4399751;32;20691;-84
2022/05/06 11:06:21;;;;;;;;;;;;;;;25.41;34.68;100341.97;4399942;32;20077;-82
2022/05/06 11:08:48;;;;;;;;;;;;;;;25.81;34.61;100340.47;4397786;32;19992;-84
2022/05/06 11:11:19;;;;;;;;;;;;;;;25.82;34.23;100331.63;4397963;32;19996;-84
2022/05/06 11:13:47;;;;;;;;;;;;;;;25.47;33.99;100331.16;4399477;32;20093;-84
2022/05/06 11:16:15;;;;;;;;;;;;;;;25.78;35.30;100335.25;4396733;32;20040;-84
2022/05/06 11:18:42;;;;;;;;;;;;;;;26.05;34.90;100327.19;4396786;32;20385;-83
2022/05/06 11:21:21;;;;;;;;;;;;;;;25.94;33.64;100330.25;4392315;32;19990;-84
2022/05/06 11:23:49;;;;;;;;;;;;;;;25.94;34.81;100327.59;4399986;32;19986;-84
2022/05/06 11:26:22;;;;;;;;;;;;;;;25.28;35.19;100327.47;4401161;32;20772;-84
2022/05/06 11:29:03;;;;;;;;;;;;;;;25.82;34.11;100331.63;4398256;32;20418;-85
2022/05/06 11:31:30;;;;;;;;;;;;;;;25.47;34.51;100331.16;4401234;32;20021;-83
2022/05/06 11:33:59;;;;;;;;;;;;;;;25.60;35.70;100325.37;4400238;32;20000;-80
2022/05/06 11:36:26;;;;;;;;;;;;;;;26.12;33.64;100324.22;4400466;32;19974;-83
2022/05/06 11:38:52;;;;;;;;;;;;;;;26.10;33.36;100319.91;4400857;32;19982;-81
2022/05/06 11:41:20;;;;;;;;;;;;;;;25.87;34.60;100319.03;4401268;32;19987;-81
2022/05/06 11:43:47;;;;;;;;;;;;;;;26.04;33.36;100314.84;4400223;32;19978;-81
2022/05/06 11:49:03;;;;;;;;;;;;;;;25.71;32.72;100312.56;4400026;32;20320;-82
2022/05/06 11:51:50;;;;;;;;;;;;;;;25.86;34.12;100305.84;4401667;32;19994;-80
2022/05/06 11:54:18;;;;;;;;;;;;;;;26.02;34.28;100314.06;4400294;32;20036;-82
2022/05/06 11:56:44;;;;;;;;;;;;;;;25.88;33.44;100307.50;4401210;32;20073;-80
2022/05/06 11:59:11;;;;;;;;;;;;;;;25.86;31.97;100317.31;4400653;32;19970;-83
2022/05/06 12:01:39;;;;;;;;;;;;;;;25.37;32.83;100318.31;4399601;32;19982;-82
2022/05/06 12:04:07;;;;;;;;;;;;;;;25.67;33.34;100305.66;4400178;32;20121;-82
2022/05/06 12:06:40;;;;;;;;;;;;;;;25.31;31.28;100305.28;4401115;32;20335;-83
2022/05/06 12:09:09;;;;;;;;;;;;;;;25.36;32.83;100301.50;4399352;32;20001;-83
2022/05/06 12:11:36;;;;;;;;;;;;;;;25.73;32.20;100302.78;4399238;32;19990;-83
2022/05/06 12:14:07;;;;;;;;;;;;;;;25.56;30.47;100303.44;4399403;32;19998;-82
2022/05/06 12:16:34;;;;;;;;;;;;;;;25.84;31.39;100305.88;4400066;32;19981;-84
2022/05/06 12:19:01;;;;;;;;;;;;;;;25.61;30.24;100303.25;4400160;32;19978;-82
2022/05/06 12:21:28;;;;;;;;;;;;;;;25.81;30.99;100303.34;4401365;32;20004;-83
2022/05/06 12:23:55;;;;;;;;;;;;;;;25.66;30.00;100298.63;4400981;32;19993;-83
2022/05/06 12:26:35;;;;;;;;;;;;;;;25.98;30.09;100295.59;4400780;32;20008;-83
2022/05/06 12:29:03;;;;;;;;;;;;;;;25.83;30.88;100301.50;4384405;32;20029;-82
2022/05/06 12:31:32;;;;;;;;;;;;;;;25.77;30.74;100296.41;4360663;32;796656;-85
2022/05/06 12:34:02;;;;;;;;;;;;;;;25.71;30.44;100296.66;4087599;32;10004672;-85
2022/05/06 12:36:30;;;;;;;;;;;;;;;25.46;30.88;100292.31;4399894;32;19970;-81
2022/05/06 12:38:56;;;;;;;;;;;;;;;25.69;31.09;100288.78;4400066;32;19990;-82
2022/05/06 12:41:27;;;;;;;;;;;;;;;25.85;30.09;100289.06;4401008;32;19970;-82
2022/05/06 12:43:58;;;;;;;;;;;;;;;26.11;30.46;100284.50;4398061;32;19990;-82
2022/05/06 12:46:34;;;;;;;;;;;;;;;26.04;31.12;100283.00;4400604;32;20027;-83
2022/05/06 12:51:47;;;;;;;;;;;;;;;25.44;31.20;100280.91;4399722;32;20041;-83
2022/05/06 12:54:14;;;;;;;;;;;;;;;25.76;30.73;100284.09;4400463;32;19986;-84
2022/05/06 12:56:42;;;;;;;;;;;;;;;25.47;31.50;100278.13;4399233;32;20034;-85
2022/05/06 12:59:09;;;;;;;;;;;;;;;25.86;31.15;100274.87;4400084;32;20377;-85
2022/05/06 13:01:36;;;;;;;;;;;;;;;25.70;31.42;100271.06;4398525;32;20024;-84
2022/05/06 13:04:03;;;;;;;;;;;;;;;25.75;31.17;100277.06;4398927;32;20012;-84
2022/05/06 13:06:31;;;;;;;;;;;;;;;25.68;32.01;100273.75;4399600;32;20043;-82
2022/05/06 13:08:58;;;;;;;;;;;;;;;26.10;31.76;100266.81;4397938;32;20571;-83
2022/05/06 13:11:25;;;;;;;;;;;;;;;26.06;30.80;100265.22;4397488;32;20041;-83
2022/05/06 13:13:52;;;;;;;;;;;;;;;26.23;31.19;100262.75;4400633;32;19994;-81
2022/05/06 13:16:19;;;;;;;;;;;;;;;26.18;30.39;100275.34;4398361;32;19994;-84
2022/05/06 13:18:50;;;;;;;;;;;;;;;25.86;30.63;100268.69;4409174;32;19986;-82
2022/05/06 13:21:17;;;;;;;;;;;;;;;25.39;30.46;100269.59;4397460;32;20005;-83
2022/05/06 13:23:44;;;;;;;;;;;;;;;25.71;30.13;100270.13;4394571;32;20002;-82
2022/05/06 13:26:11;;;;;;;;;;;;;;;25.61;30.66;100263.47;4396366;32;20355;-84
2022/05/06 13:28:39;;;;;;;;;;;;;;;25.69;30.13;100262.25;4394928;32;19998;-84
2022/05/06 13:31:09;;;;;;;;;;;;;;;25.48;30.43;100258.66;4396176;32;20029;-84